createdAt,value
2017-07-02T00:01:51.191Z,17.91
2017-07-02T00:03:52.890Z,17.94
2017-07-02T00:05:54.378Z,17.85
2017-07-02T00:07:55.840Z,18.00
2017-07-02T00:09:57.307Z,17.92
2017-07-02T00:11:58.754Z,18.00
2017-07-02T00:14:00.225Z,18.04
2017-07-02T00:16:01.679Z,18.00
2017-07-02T00:18:03.110Z,17.89
2017-07-02T00:20:04.574Z,17.74
2017-07-02T00:22:06.022Z,17.69
2017-07-02T00:24:07.455Z,17.70
2017-07-02T00:26:09.180Z,17.67
2017-07-02T00:28:10.652Z,17.62
2017-07-02T00:30:12.141Z,17.59
2017-07-02T00:32:13.591Z,17.57
2017-07-02T00:34:15.039Z,17.53
2017-07-02T00:36:16.466Z,17.28
2017-07-02T00:38:17.919Z,17.29
2017-07-02T00:40:19.468Z,17.33
2017-07-02T00:42:20.906Z,17.23
2017-07-02T00:44:22.333Z,17.28
2017-07-02T00:46:23.764Z,17.13
2017-07-02T00:48:25.193Z,16.98
2017-07-02T00:50:26.635Z,17.08
2017-07-02T00:52:28.101Z,17.13
2017-07-02T00:54:29.584Z,17.18
2017-07-02T00:56:31.279Z,17.17
2017-07-02T00:58:33.013Z,17.06
2017-07-02T01:00:34.809Z,16.99
2017-07-02T01:02:36.351Z,16.96
2017-07-02T01:04:38.054Z,16.89
2017-07-02T01:06:39.816Z,16.86
2017-07-02T01:08:41.377Z,16.83
2017-07-02T01:10:43.169Z,16.93
2017-07-02T01:12:44.893Z,16.80
2017-07-02T01:14:46.389Z,16.78
2017-07-02T01:16:47.857Z,16.77
2017-07-02T01:18:49.436Z,16.80
2017-07-02T01:20:50.959Z,16.80
2017-07-02T01:22:52.712Z,16.74
2017-07-02T01:24:54.149Z,16.81
2017-07-02T01:26:55.604Z,16.70
2017-07-02T01:28:57.034Z,16.68
2017-07-02T01:30:58.610Z,16.56
2017-07-02T01:33:00.321Z,16.52
2017-07-02T01:35:02.120Z,16.53
2017-07-02T01:37:03.591Z,16.59
2017-07-02T01:39:05.017Z,16.81
2017-07-02T01:41:06.565Z,16.78
2017-07-02T01:43:08.017Z,16.80
2017-07-02T01:45:09.523Z,16.65
2017-07-02T01:47:10.997Z,16.58
2017-07-02T01:49:12.465Z,16.48
2017-07-02T01:51:13.902Z,16.42
2017-07-02T01:53:15.328Z,16.44
2017-07-02T01:55:16.764Z,16.55
2017-07-02T01:57:18.190Z,16.70
2017-07-02T01:59:19.616Z,16.62
2017-07-02T02:01:21.059Z,16.58
2017-07-02T02:03:22.488Z,16.44
2017-07-02T02:05:23.958Z,16.48
2017-07-02T02:07:25.746Z,16.45
2017-07-02T02:09:27.483Z,16.37
2017-07-02T02:11:28.902Z,16.26
2017-07-02T02:13:30.363Z,16.22
2017-07-02T02:15:31.866Z,16.33
2017-07-02T02:17:33.490Z,16.31
2017-07-02T02:19:35.261Z,16.31
2017-07-02T02:21:36.997Z,16.33
2017-07-02T02:23:38.818Z,16.20
2017-07-02T02:25:40.255Z,16.18
2017-07-02T02:27:41.783Z,16.18
2017-07-02T02:29:43.242Z,16.18
2017-07-02T02:31:44.673Z,16.12
2017-07-02T02:33:46.115Z,16.23
2017-07-02T02:35:47.545Z,16.22
2017-07-02T02:37:48.978Z,16.18
2017-07-02T02:39:50.430Z,16.30
2017-07-02T02:41:51.945Z,16.23
2017-07-02T02:43:53.744Z,16.18
2017-07-02T02:45:55.376Z,16.14
2017-07-02T02:47:57.126Z,16.12
2017-07-02T02:49:58.685Z,16.07
2017-07-02T02:52:00.123Z,16.03
2017-07-02T02:54:01.572Z,16.16
2017-07-02T02:56:03.296Z,16.11
2017-07-02T02:58:04.967Z,16.25
2017-07-02T03:00:06.559Z,16.26
2017-07-02T03:02:08.242Z,16.15
2017-07-02T03:04:09.707Z,16.34
2017-07-02T03:06:11.176Z,16.26
2017-07-02T03:08:12.734Z,16.20
2017-07-02T03:10:14.199Z,16.35
2017-07-02T03:12:15.674Z,16.30
2017-07-02T03:14:17.084Z,16.33
2017-07-02T03:16:18.508Z,16.38
2017-07-02T03:18:19.939Z,16.52
2017-07-02T03:20:21.364Z,16.48
2017-07-02T03:22:22.793Z,16.50
2017-07-02T03:24:24.216Z,16.41
2017-07-02T03:26:25.642Z,16.53
2017-07-02T03:28:27.160Z,16.60
2017-07-02T03:30:28.648Z,16.53
2017-07-02T03:32:30.400Z,16.59
2017-07-02T03:34:31.995Z,16.67
2017-07-02T03:36:33.504Z,16.56
2017-07-02T03:38:35.259Z,16.50
2017-07-02T03:40:36.686Z,16.44
2017-07-02T03:42:38.137Z,16.45
2017-07-02T03:44:39.577Z,16.38
2017-07-02T03:46:41.014Z,16.35
2017-07-02T03:48:42.439Z,16.42
2017-07-02T03:50:43.883Z,16.52
2017-07-02T03:52:45.316Z,16.58
2017-07-02T03:54:46.761Z,16.53
2017-07-02T03:56:48.196Z,16.74
2017-07-02T03:58:49.626Z,16.78
2017-07-02T04:00:51.054Z,16.73
2017-07-02T04:02:52.483Z,16.71
2017-07-02T04:04:53.990Z,16.75
2017-07-02T04:06:55.401Z,16.71
2017-07-02T04:08:56.835Z,16.70
2017-07-02T04:10:58.265Z,16.70
2017-07-02T04:12:59.694Z,16.78
2017-07-02T04:15:01.256Z,16.65
2017-07-02T04:17:02.709Z,16.65
2017-07-02T04:19:04.272Z,16.67
2017-07-02T04:21:05.693Z,16.62
2017-07-02T04:23:07.126Z,16.50
2017-07-02T04:25:08.544Z,16.48
2017-07-02T04:27:09.979Z,16.52
2017-07-02T04:29:11.407Z,16.68
2017-07-02T04:31:13.008Z,16.85
2017-07-02T04:33:14.706Z,16.71
2017-07-02T04:35:16.207Z,16.77
2017-07-02T04:37:17.981Z,16.67
2017-07-02T04:39:19.711Z,16.70
2017-07-02T04:41:21.419Z,16.70
2017-07-02T04:43:22.856Z,16.65
2017-07-02T04:45:24.562Z,16.70
2017-07-02T04:47:26.329Z,16.71
2017-07-02T04:49:27.778Z,16.71
2017-07-02T04:51:29.559Z,16.71
2017-07-02T04:53:31.133Z,16.70
2017-07-02T04:55:32.650Z,16.80
2017-07-02T04:57:34.121Z,16.78
2017-07-02T04:59:35.551Z,16.89
2017-07-02T05:01:37.024Z,16.88
2017-07-02T05:03:38.502Z,16.89
2017-07-02T05:05:39.971Z,16.88
2017-07-02T05:07:41.421Z,16.81
2017-07-02T05:09:42.848Z,16.89
2017-07-02T05:11:44.423Z,16.89
2017-07-02T05:13:45.902Z,16.92
2017-07-02T05:15:47.341Z,16.96
2017-07-02T05:17:48.831Z,17.03
2017-07-02T05:19:50.289Z,16.96
2017-07-02T05:21:51.711Z,16.98
2017-07-02T05:23:53.141Z,16.92
2017-07-02T05:25:54.575Z,17.07
2017-07-02T05:27:56.004Z,17.14
2017-07-02T05:29:57.435Z,17.15
2017-07-02T05:31:58.864Z,17.11
2017-07-02T05:34:00.306Z,17.11
2017-07-02T05:36:01.735Z,17.00
2017-07-02T05:38:03.163Z,16.96
2017-07-02T05:40:04.603Z,17.10
2017-07-02T05:42:06.043Z,17.07
2017-07-02T05:44:07.581Z,16.95
2017-07-02T05:46:09.201Z,16.93
2017-07-02T05:48:10.645Z,16.95
2017-07-02T05:50:12.120Z,17.03
2017-07-02T05:52:13.659Z,16.96
2017-07-02T05:54:15.189Z,16.96
2017-07-02T05:56:16.975Z,16.98
2017-07-02T05:58:18.422Z,16.98
2017-07-02T06:00:20.223Z,17.11
2017-07-02T06:02:21.660Z,17.11
2017-07-02T06:04:23.256Z,17.04
2017-07-02T06:06:24.732Z,17.13
2017-07-02T06:08:26.217Z,17.18
2017-07-02T06:10:27.913Z,17.23
2017-07-02T06:12:29.354Z,17.28
2017-07-02T06:14:30.778Z,17.15
2017-07-02T06:16:32.207Z,17.23
2017-07-02T06:18:33.638Z,17.22
2017-07-02T06:20:35.067Z,17.07
2017-07-02T06:22:36.497Z,17.08
2017-07-02T06:24:37.924Z,17.06
2017-07-02T06:26:39.352Z,17.13
2017-07-02T06:28:40.783Z,17.13
2017-07-02T06:30:42.218Z,17.07
2017-07-02T06:32:43.641Z,17.00
2017-07-02T06:34:45.073Z,16.96
2017-07-02T06:36:46.504Z,16.99
2017-07-02T06:38:47.930Z,17.10
2017-07-02T06:40:49.352Z,17.07
2017-07-02T06:42:50.798Z,17.08
2017-07-02T06:44:52.229Z,17.03
2017-07-02T06:46:53.657Z,16.98
2017-07-02T06:48:55.085Z,16.89
2017-07-02T06:50:56.518Z,17.04
2017-07-02T06:52:57.947Z,17.13
2017-07-02T06:54:59.378Z,16.95
2017-07-02T06:57:00.810Z,16.98
2017-07-02T06:59:02.240Z,17.00
2017-07-02T07:01:03.670Z,16.85
2017-07-02T07:03:05.130Z,16.95
2017-07-02T07:05:06.620Z,16.92
2017-07-02T07:07:08.056Z,16.99
2017-07-02T07:09:09.489Z,16.95
2017-07-02T07:11:10.927Z,17.00
2017-07-02T07:13:12.361Z,17.13
2017-07-02T07:15:13.785Z,17.07
2017-07-02T07:17:15.218Z,17.10
2017-07-02T07:19:16.649Z,17.08
2017-07-02T07:21:18.085Z,17.03
2017-07-02T07:23:19.508Z,17.07
2017-07-02T07:25:20.935Z,17.17
2017-07-02T07:27:22.363Z,17.28
2017-07-02T07:29:23.792Z,17.28
2017-07-02T07:31:25.222Z,17.13
2017-07-02T07:33:26.650Z,17.06
2017-07-02T07:35:28.080Z,17.18
2017-07-02T07:37:31.102Z,17.25
2017-07-02T07:39:32.537Z,17.30
2017-07-02T07:41:33.961Z,17.07
2017-07-02T07:43:35.409Z,16.89
2017-07-02T07:45:36.848Z,16.89
2017-07-02T07:47:38.281Z,16.96
2017-07-02T07:49:40.091Z,16.86
2017-07-02T07:51:41.475Z,16.85
2017-07-02T07:53:42.961Z,16.95
2017-07-02T07:55:44.438Z,16.93
2017-07-02T07:57:45.992Z,17.04
2017-07-02T07:59:47.799Z,17.11
2017-07-02T08:01:49.276Z,16.89
2017-07-02T08:03:50.823Z,16.90
2017-07-02T08:05:52.326Z,16.96
2017-07-02T08:07:53.924Z,16.95
2017-07-02T08:09:55.399Z,17.07
2017-07-02T08:11:57.259Z,17.17
2017-07-02T08:14:41.613Z,17.23
2017-07-02T08:16:43.112Z,17.15
2017-07-02T08:19:25.864Z,17.26
2017-07-02T08:21:27.421Z,17.26
2017-07-02T08:23:29.220Z,17.28
2017-07-02T08:25:31.183Z,17.29
2017-07-02T08:27:33.098Z,17.29
2017-07-02T08:29:34.903Z,17.38
2017-07-02T08:31:36.678Z,17.44
2017-07-02T08:33:38.791Z,17.29
2017-07-02T08:35:40.684Z,17.36
2017-07-02T08:37:42.510Z,17.44
2017-07-02T08:39:44.462Z,17.40
2017-07-02T08:42:27.199Z,17.59
2017-07-02T08:44:29.329Z,17.51
2017-07-02T08:46:31.321Z,17.48
2017-07-02T08:48:33.404Z,17.30
2017-07-02T08:50:35.089Z,17.29
2017-07-02T08:52:36.895Z,17.32
2017-07-02T08:54:38.769Z,17.36
2017-07-02T08:56:40.302Z,17.23
2017-07-02T08:58:41.792Z,17.26
2017-07-02T09:00:43.340Z,17.32
2017-07-02T09:02:44.879Z,17.30
2017-07-02T09:04:46.352Z,17.25
2017-07-02T09:06:47.859Z,17.18
2017-07-02T09:08:49.334Z,17.26
2017-07-02T09:10:50.903Z,17.40
2017-07-02T09:12:52.387Z,17.55
2017-07-02T09:14:53.815Z,17.33
2017-07-02T09:16:55.317Z,17.38
2017-07-02T09:18:56.743Z,17.38
2017-07-02T09:20:58.188Z,17.54
2017-07-02T09:22:59.641Z,17.53
2017-07-02T09:25:01.075Z,17.51
2017-07-02T09:27:02.504Z,17.59
2017-07-02T09:29:03.950Z,17.59
2017-07-02T09:31:05.563Z,17.62
2017-07-02T09:33:07.030Z,17.59
2017-07-02T09:35:08.531Z,17.48
2017-07-02T09:37:09.964Z,17.51
2017-07-02T09:39:12.158Z,17.66
2017-07-02T09:41:13.591Z,17.59
2017-07-02T09:43:15.096Z,17.50
2017-07-02T09:45:16.511Z,17.53
2017-07-02T09:47:17.976Z,17.57
2017-07-02T09:49:19.379Z,17.64
2017-07-02T09:51:20.818Z,17.63
2017-07-02T09:53:22.296Z,17.67
2017-07-02T09:55:23.756Z,17.73
2017-07-02T09:57:25.226Z,17.78
2017-07-02T09:59:26.710Z,17.74
2017-07-02T10:01:28.150Z,17.87
2017-07-02T10:03:29.582Z,17.94
2017-07-02T10:05:31.011Z,18.06
2017-07-02T10:07:32.450Z,18.13
2017-07-02T10:09:33.888Z,18.21
2017-07-02T10:11:35.342Z,18.25
2017-07-02T10:13:36.812Z,18.46
2017-07-02T10:15:38.345Z,18.50
2017-07-02T10:17:40.189Z,18.49
2017-07-02T10:19:41.891Z,18.37
2017-07-02T10:21:43.605Z,18.33
2017-07-02T10:23:45.486Z,18.34
2017-07-02T10:25:47.055Z,18.27
2017-07-02T10:27:48.876Z,18.36
2017-07-02T10:29:50.579Z,18.40
2017-07-02T10:31:52.328Z,18.34
2017-07-02T10:33:54.041Z,18.37
2017-07-02T10:35:55.905Z,18.24
2017-07-02T10:37:57.626Z,18.10
2017-07-02T10:39:59.326Z,18.15
2017-07-02T10:42:01.074Z,18.34
2017-07-02T10:44:02.770Z,18.52
2017-07-02T10:46:04.553Z,18.52
2017-07-02T10:48:06.256Z,18.59
2017-07-02T10:50:08.015Z,18.46
2017-07-02T10:52:09.723Z,18.33
2017-07-02T10:54:12.102Z,18.42
2017-07-02T10:56:13.917Z,18.57
2017-07-02T10:58:16.311Z,18.68
2017-07-02T11:00:18.063Z,18.80
2017-07-02T11:02:19.747Z,18.80
2017-07-02T11:04:21.543Z,18.97
2017-07-02T11:06:23.503Z,18.92
2017-07-02T11:08:25.405Z,19.05
2017-07-02T11:10:27.191Z,19.13
2017-07-02T11:12:28.855Z,19.10
2017-07-02T11:14:30.544Z,19.21
2017-07-02T11:16:32.272Z,19.36
2017-07-02T11:18:34.205Z,19.33
2017-07-02T11:20:36.114Z,19.36
2017-07-02T11:22:37.896Z,19.39
2017-07-02T11:24:39.811Z,19.23
2017-07-02T11:26:41.774Z,19.36
2017-07-02T11:28:43.670Z,19.35
2017-07-02T11:30:45.401Z,19.61
2017-07-02T11:32:47.324Z,19.75
2017-07-02T11:34:49.160Z,19.95
2017-07-02T11:36:51.004Z,19.97
2017-07-02T11:38:53.118Z,20.39
2017-07-02T11:40:55.046Z,20.54
2017-07-02T11:42:57.064Z,20.72
2017-07-02T11:44:59.042Z,20.74
2017-07-02T11:47:00.978Z,20.87
2017-07-02T11:49:02.756Z,21.08
2017-07-02T11:51:05.106Z,21.34
2017-07-02T11:53:07.435Z,21.57
2017-07-02T11:55:09.313Z,21.82
2017-07-02T11:57:11.185Z,21.98
2017-07-02T11:59:13.085Z,21.99
2017-07-02T12:01:14.958Z,21.98
2017-07-02T12:03:16.822Z,21.76
2017-07-02T12:05:18.749Z,21.83
2017-07-02T12:07:20.581Z,21.83
2017-07-02T12:09:22.087Z,21.87
2017-07-02T12:11:23.555Z,22.25
2017-07-02T12:13:25.033Z,22.41
2017-07-02T12:15:26.521Z,22.56
2017-07-02T12:17:27.983Z,22.77
2017-07-02T12:19:29.480Z,22.83
2017-07-02T12:21:30.963Z,22.78
2017-07-02T12:23:32.501Z,23.02
2017-07-02T12:25:33.992Z,23.15
2017-07-02T12:27:35.444Z,23.24
2017-07-02T12:29:36.997Z,23.46
2017-07-02T12:31:38.435Z,23.64
2017-07-02T12:33:39.927Z,23.53
2017-07-02T12:35:41.377Z,23.58
2017-07-02T12:37:42.935Z,23.60
2017-07-02T12:39:44.631Z,23.61
2017-07-02T12:41:46.464Z,23.57
2017-07-02T12:43:48.291Z,23.47
2017-07-02T12:45:50.405Z,23.45
2017-07-02T12:47:52.226Z,23.50
2017-07-02T12:49:54.048Z,23.49
2017-07-02T12:51:55.980Z,23.47
2017-07-02T12:53:57.837Z,23.38
2017-07-02T12:55:59.724Z,23.55
2017-07-02T12:58:03.248Z,23.71
2017-07-02T13:00:04.816Z,23.70
2017-07-02T13:02:06.703Z,23.60
2017-07-02T13:04:08.569Z,23.40
2017-07-02T13:06:10.175Z,23.26
2017-07-02T13:08:12.062Z,23.04
2017-07-02T13:10:13.969Z,23.01
2017-07-02T13:12:15.695Z,22.83
2017-07-02T13:14:17.532Z,22.84
2017-07-02T13:16:19.357Z,23.08
2017-07-02T13:18:21.332Z,23.24
2017-07-02T13:20:23.074Z,23.45
2017-07-02T13:22:25.074Z,23.62
2017-07-02T13:24:27.193Z,23.82
2017-07-02T13:26:30.281Z,23.72
2017-07-02T13:28:33.227Z,23.70
2017-07-02T13:30:35.158Z,23.85
2017-07-02T13:32:37.002Z,23.83
2017-07-02T13:34:38.869Z,23.80
2017-07-02T13:36:41.407Z,23.82
2017-07-02T13:38:43.712Z,23.75
2017-07-02T13:40:45.469Z,23.77
2017-07-02T13:42:47.030Z,23.71
2017-07-02T13:44:48.537Z,23.83
2017-07-02T13:46:50.061Z,23.67
2017-07-02T13:48:51.624Z,23.53
2017-07-02T13:50:54.057Z,23.39
2017-07-02T13:52:55.715Z,23.38
2017-07-02T13:54:57.539Z,23.58
2017-07-02T13:56:59.056Z,23.23
2017-07-02T13:59:01.360Z,23.12
2017-07-02T14:01:04.211Z,23.34
2017-07-02T14:03:06.435Z,23.43
2017-07-02T14:05:07.868Z,23.52
2017-07-02T14:07:09.521Z,23.72
2017-07-02T14:09:11.100Z,23.77
2017-07-02T14:11:12.642Z,23.70
2017-07-02T14:13:14.536Z,23.70
2017-07-02T14:15:16.103Z,23.70
2017-07-02T14:17:18.666Z,23.55
2017-07-02T14:19:20.415Z,23.55
2017-07-02T14:21:22.293Z,23.57
2017-07-02T14:23:23.842Z,23.58
2017-07-02T14:25:26.145Z,23.64
2017-07-02T14:27:28.017Z,23.68
2017-07-02T14:29:29.761Z,23.68
2017-07-02T14:31:31.332Z,23.62
2017-07-02T14:33:32.853Z,23.68
2017-07-02T14:35:34.642Z,23.50
2017-07-02T14:37:36.458Z,23.39
2017-07-02T14:39:38.240Z,23.39
2017-07-02T14:41:40.963Z,23.62
2017-07-02T14:43:42.694Z,23.62
2017-07-02T14:45:44.583Z,23.67
2017-07-02T14:47:46.385Z,23.57
2017-07-02T14:49:48.183Z,23.47
2017-07-02T14:51:49.975Z,23.43
2017-07-02T14:53:52.210Z,23.50
2017-07-02T14:55:54.352Z,23.52
2017-07-02T14:57:56.228Z,23.70
2017-07-02T14:59:58.016Z,23.62
2017-07-02T15:01:59.974Z,23.49
2017-07-02T15:04:01.881Z,23.58
2017-07-02T15:06:03.441Z,23.40
2017-07-02T15:08:05.353Z,23.24
2017-07-02T15:10:07.157Z,23.35
2017-07-02T15:12:08.873Z,23.38
2017-07-02T15:14:10.701Z,23.20
2017-07-02T15:16:12.585Z,23.27
2017-07-02T15:18:14.539Z,23.35
2017-07-02T15:20:16.286Z,23.27
2017-07-02T15:22:18.115Z,23.31
2017-07-02T15:24:19.897Z,23.35
2017-07-02T15:26:21.749Z,23.47
2017-07-02T15:28:23.639Z,23.57
2017-07-02T15:30:25.302Z,23.46
2017-07-02T15:32:27.112Z,23.49
2017-07-02T15:34:28.914Z,23.43
2017-07-02T15:36:30.513Z,23.64
2017-07-02T15:38:32.305Z,23.64
2017-07-02T15:40:33.817Z,23.50
2017-07-02T15:42:35.327Z,23.47
2017-07-02T15:44:36.873Z,23.34
2017-07-02T15:46:38.756Z,23.02
2017-07-02T15:48:40.680Z,22.99
2017-07-02T15:50:42.374Z,22.83
2017-07-02T15:52:44.101Z,22.87
2017-07-02T15:54:45.877Z,22.69
2017-07-02T15:56:47.614Z,22.77
2017-07-02T15:58:49.085Z,22.75
2017-07-02T16:00:50.570Z,22.83
2017-07-02T16:02:52.045Z,22.86
2017-07-02T16:04:53.522Z,22.96
2017-07-02T16:06:55.169Z,22.89
2017-07-02T16:08:57.025Z,22.86
2017-07-02T16:10:58.748Z,22.93
2017-07-02T16:13:00.463Z,22.96
2017-07-02T16:15:02.279Z,23.08
2017-07-02T16:17:03.830Z,22.99
2017-07-02T16:19:05.278Z,22.89
2017-07-02T16:21:06.752Z,22.86
2017-07-02T16:23:08.214Z,22.97
2017-07-02T16:25:09.710Z,22.99
2017-07-02T16:27:11.173Z,23.05
2017-07-02T16:29:12.633Z,23.02
2017-07-02T16:31:14.156Z,22.93
2017-07-02T16:33:15.629Z,22.97
2017-07-02T16:35:17.088Z,22.99
2017-07-02T16:37:18.570Z,23.01
2017-07-02T16:39:20.070Z,23.05
2017-07-02T16:41:21.543Z,23.01
2017-07-02T16:43:23.018Z,22.97
2017-07-02T16:45:24.486Z,22.83
2017-07-02T16:47:25.949Z,22.83
2017-07-02T16:49:27.439Z,22.83
2017-07-02T16:51:28.879Z,22.74
2017-07-02T16:53:30.589Z,22.64
2017-07-02T16:55:32.341Z,22.41
2017-07-02T16:57:34.045Z,22.44
2017-07-02T16:59:35.740Z,22.56
2017-07-02T17:01:37.511Z,22.57
2017-07-02T17:03:39.365Z,22.57
2017-07-02T17:05:41.190Z,22.60
2017-07-02T17:07:42.801Z,22.50
2017-07-02T17:09:44.505Z,22.50
2017-07-02T17:11:46.290Z,22.56
2017-07-02T17:13:47.897Z,22.52
2017-07-02T17:15:49.404Z,22.56
2017-07-02T17:17:50.845Z,22.39
2017-07-02T17:19:52.298Z,22.38
2017-07-02T17:21:53.788Z,22.14
2017-07-02T17:23:55.291Z,22.12
2017-07-02T17:25:56.949Z,22.12
2017-07-02T17:27:58.682Z,22.23
2017-07-02T17:30:00.375Z,22.16
2017-07-02T17:32:02.000Z,22.22
2017-07-02T17:34:03.835Z,22.20
2017-07-02T17:36:05.561Z,22.16
2017-07-02T17:38:09.967Z,22.07
2017-07-02T17:40:11.724Z,22.04
2017-07-02T17:42:13.493Z,21.90
2017-07-02T17:44:15.263Z,21.69
2017-07-02T17:46:16.982Z,21.66
2017-07-02T17:48:18.646Z,21.67
2017-07-02T17:50:20.458Z,21.78
2017-07-02T17:52:22.199Z,21.74
2017-07-02T17:54:23.926Z,21.78
2017-07-02T17:56:25.689Z,21.90
2017-07-02T17:58:27.490Z,21.81
2017-07-02T18:00:29.484Z,21.78
2017-07-02T18:02:31.351Z,21.64
2017-07-02T18:04:33.092Z,21.69
2017-07-02T18:06:34.806Z,21.72
2017-07-02T18:08:36.340Z,21.76
2017-07-02T18:10:37.960Z,21.53
2017-07-02T18:12:39.441Z,21.56
2017-07-02T18:14:40.944Z,21.53
2017-07-02T18:16:42.471Z,21.59
2017-07-02T18:18:43.952Z,21.57
2017-07-02T18:20:45.480Z,21.53
2017-07-02T18:22:47.030Z,21.54
2017-07-02T18:24:48.512Z,21.45
2017-07-02T18:26:49.981Z,21.38
2017-07-02T18:28:51.449Z,21.23
2017-07-02T18:30:52.962Z,21.21
2017-07-02T18:32:54.625Z,21.05
2017-07-02T18:34:56.125Z,21.17
2017-07-02T18:36:57.601Z,21.01
2017-07-02T18:38:59.113Z,21.01
2017-07-02T18:41:00.575Z,20.95
2017-07-02T18:43:02.012Z,20.95
2017-07-02T18:45:03.522Z,20.96
2017-07-02T18:47:05.109Z,20.89
2017-07-02T18:49:06.853Z,20.84
2017-07-02T18:51:08.947Z,20.80
2017-07-02T18:53:10.721Z,20.83
2017-07-02T18:55:12.472Z,20.77
2017-07-02T18:57:14.079Z,20.69
2017-07-02T18:59:15.589Z,20.72
2017-07-02T19:01:17.941Z,20.77
2017-07-02T19:03:19.614Z,20.77
2017-07-02T19:05:21.127Z,20.69
2017-07-02T19:07:22.598Z,20.72
2017-07-02T19:09:24.108Z,20.74
2017-07-02T19:11:25.594Z,20.71
2017-07-02T19:13:27.052Z,20.74
2017-07-02T19:15:28.613Z,20.61
2017-07-02T19:17:30.127Z,20.66
2017-07-02T19:19:31.620Z,20.49
2017-07-02T19:21:33.084Z,20.68
2017-07-02T19:23:34.747Z,20.64
2017-07-02T19:25:36.494Z,20.47
2017-07-02T19:27:38.199Z,20.47
2017-07-02T19:29:39.959Z,20.50
2017-07-02T19:31:41.785Z,20.49
2017-07-02T19:33:43.569Z,20.42
2017-07-02T19:35:45.293Z,20.35
2017-07-02T19:37:46.822Z,20.30
2017-07-02T19:39:48.300Z,20.20
2017-07-02T19:41:49.852Z,20.09
2017-07-02T19:43:52.465Z,20.02
2017-07-02T19:45:54.247Z,19.97
2017-07-02T19:47:56.041Z,20.02
2017-07-02T19:49:57.803Z,19.88
2017-07-02T19:51:59.587Z,19.72
2017-07-02T19:54:01.125Z,19.86
2017-07-02T19:56:02.654Z,19.75
2017-07-02T19:58:04.238Z,19.69
2017-07-02T20:00:05.674Z,19.65
2017-07-02T20:02:07.107Z,19.53
2017-07-02T20:04:08.536Z,19.63
2017-07-02T20:06:09.952Z,19.40
2017-07-02T20:08:11.399Z,19.43
2017-07-02T20:10:12.831Z,19.42
2017-07-02T20:12:14.263Z,19.47
2017-07-02T20:14:15.694Z,19.40
2017-07-02T20:16:17.124Z,19.42
2017-07-02T20:18:18.552Z,19.40
2017-07-02T20:20:19.982Z,19.38
2017-07-02T20:22:21.425Z,19.31
2017-07-02T20:24:22.861Z,19.18
2017-07-02T20:26:24.309Z,19.02
2017-07-02T20:28:25.737Z,19.05
2017-07-02T20:30:27.166Z,19.02
2017-07-02T20:32:28.594Z,19.05
2017-07-02T20:34:30.022Z,18.95
2017-07-02T20:36:31.480Z,18.97
2017-07-02T20:38:32.906Z,18.83
2017-07-02T20:40:34.425Z,18.87
2017-07-02T20:42:35.943Z,18.84
2017-07-02T20:44:37.712Z,18.74
2017-07-02T20:46:39.423Z,18.68
2017-07-02T20:48:41.295Z,18.70
2017-07-02T20:50:43.038Z,18.82
2017-07-02T20:52:45.006Z,18.70
2017-07-02T20:54:46.835Z,18.72
2017-07-02T20:56:48.680Z,18.70
2017-07-02T20:58:50.423Z,18.67
2017-07-02T21:00:52.110Z,18.52
2017-07-02T21:02:53.645Z,18.47
2017-07-02T21:04:55.116Z,18.55
2017-07-02T21:06:56.588Z,18.50
2017-07-02T21:08:58.304Z,18.46
2017-07-02T21:10:59.961Z,18.34
2017-07-02T21:13:01.786Z,18.36
2017-07-02T21:15:03.601Z,18.28
2017-07-02T21:17:05.200Z,18.13
2017-07-02T21:19:06.667Z,18.00
2017-07-02T21:21:08.124Z,18.03
2017-07-02T21:23:09.586Z,17.95
2017-07-02T21:25:11.041Z,17.91
2017-07-02T21:27:12.617Z,17.89
2017-07-02T21:29:14.054Z,17.69
2017-07-02T21:31:15.528Z,17.54
2017-07-02T21:33:17.010Z,17.55
2017-07-02T21:35:19.070Z,17.43
2017-07-02T21:37:20.531Z,17.46
2017-07-02T21:39:21.963Z,17.59
2017-07-02T21:41:23.390Z,17.55
2017-07-02T21:43:24.820Z,17.62
2017-07-02T21:45:26.292Z,17.69
2017-07-02T21:47:27.860Z,17.69
2017-07-02T21:49:29.584Z,17.70
2017-07-02T21:51:31.268Z,17.71
2017-07-02T21:53:32.756Z,17.69
2017-07-02T21:55:34.240Z,17.62
2017-07-02T21:57:35.660Z,17.67
2017-07-02T21:59:37.079Z,17.69
2017-07-02T22:01:38.532Z,17.67
2017-07-02T22:03:39.992Z,17.63
2017-07-02T22:05:41.451Z,17.55
2017-07-02T22:07:42.881Z,17.55
2017-07-02T22:09:44.403Z,17.55
2017-07-02T22:11:45.879Z,17.47
2017-07-02T22:13:47.496Z,17.40
2017-07-02T22:15:48.964Z,17.40
2017-07-02T22:17:50.412Z,17.33
2017-07-02T22:19:51.963Z,17.26
2017-07-02T22:21:53.924Z,17.28
2017-07-02T22:23:55.642Z,17.23
2017-07-02T22:25:57.314Z,17.23
2017-07-02T22:27:59.029Z,17.20
2017-07-02T22:30:01.113Z,17.20
2017-07-02T22:32:02.821Z,17.22
2017-07-02T22:34:04.502Z,17.22
2017-07-02T22:36:06.012Z,17.17
2017-07-02T22:38:07.670Z,17.14
2017-07-02T22:40:09.286Z,17.15
2017-07-02T22:42:10.790Z,17.00
2017-07-02T22:44:12.367Z,17.11
2017-07-02T22:46:13.823Z,16.98
2017-07-02T22:48:15.379Z,16.95
2017-07-02T22:50:17.297Z,16.89
2017-07-02T22:52:19.002Z,16.88
2017-07-02T22:54:20.507Z,16.90
2017-07-02T22:56:22.010Z,16.77
2017-07-02T22:58:23.521Z,16.81
2017-07-02T23:00:25.049Z,16.77
2017-07-02T23:02:26.668Z,16.77
2017-07-02T23:04:28.368Z,16.80
2017-07-02T23:06:29.859Z,16.71
2017-07-02T23:08:31.298Z,16.63
2017-07-02T23:10:32.838Z,16.55
2017-07-02T23:12:34.290Z,16.53
2017-07-02T23:14:35.967Z,16.48
2017-07-02T23:16:38.220Z,16.49
2017-07-02T23:18:41.028Z,16.44
2017-07-02T23:20:42.840Z,16.48
2017-07-02T23:22:44.604Z,16.48
2017-07-02T23:24:46.247Z,16.37
2017-07-02T23:26:47.948Z,16.45
2017-07-02T23:28:49.671Z,16.38
2017-07-02T23:30:51.338Z,16.37
2017-07-02T23:32:53.387Z,16.25
2017-07-02T23:34:55.673Z,16.26
2017-07-02T23:36:57.380Z,16.30
2017-07-02T23:38:59.056Z,16.23
2017-07-02T23:41:00.536Z,16.22
2017-07-02T23:43:02.153Z,16.20
2017-07-02T23:45:04.346Z,16.26
2017-07-02T23:47:05.867Z,16.06
2017-07-02T23:49:07.499Z,16.14
2017-07-02T23:51:09.129Z,15.99
2017-07-02T23:53:10.889Z,15.97
2017-07-02T23:55:12.704Z,16.09
2017-07-02T23:57:14.428Z,16.07
2017-07-02T23:59:16.155Z,16.03
